createdAt,value
2019-06-08T00:01:58.998Z,23.35
2019-06-08T00:04:34.378Z,26.12
2019-06-08T00:07:14.771Z,21.97
2019-06-08T00:09:50.252Z,21.75
2019-06-08T00:12:24.859Z,21.30
2019-06-08T00:14:59.671Z,21.42
2019-06-08T00:17:38.385Z,21.20
2019-06-08T00:20:10.594Z,20.77
2019-06-08T00:22:45.585Z,21.07
2019-06-08T00:25:20.830Z,20.27
2019-06-08T00:27:55.858Z,19.20
2019-06-08T00:30:30.776Z,21.07
2019-06-08T00:33:04.788Z,24.72
2019-06-08T00:35:39.334Z,21.85
2019-06-08T00:38:16.796Z,23.20
2019-06-08T00:40:51.321Z,23.70
2019-06-08T00:43:25.550Z,22.58
2019-06-08T00:46:01.770Z,22.58
2019-06-08T00:48:37.946Z,24.30
2019-06-08T00:51:11.933Z,23.92
2019-06-08T00:53:45.728Z,25.77
2019-06-08T00:56:19.969Z,24.15
2019-06-08T00:58:54.412Z,23.40
2019-06-08T01:01:30.785Z,26.40
2019-06-08T01:04:04.939Z,26.93
2019-06-08T01:06:40.033Z,25.17
2019-06-08T01:09:15.021Z,27.25
2019-06-08T01:11:50.424Z,28.52
2019-06-08T01:14:27.104Z,27.30
2019-06-08T01:17:03.200Z,25.08
2019-06-08T01:19:38.197Z,27.07
2019-06-08T01:22:12.455Z,26.77
2019-06-08T01:24:47.072Z,26.35
2019-06-08T01:27:23.832Z,28.17
2019-06-08T01:29:58.434Z,28.77
2019-06-08T01:32:34.080Z,25.80
2019-06-08T01:35:09.646Z,27.00
2019-06-08T01:37:44.109Z,28.80
2019-06-08T01:40:21.220Z,29.20
2019-06-08T01:42:56.121Z,30.30
2019-06-08T01:45:33.761Z,29.85
2019-06-08T01:48:19.942Z,30.25
2019-06-08T01:50:45.884Z,31.50
2019-06-08T01:53:19.780Z,28.02
2019-06-08T01:55:53.866Z,27.45
2019-06-08T01:58:29.484Z,30.32
2019-06-08T02:01:04.422Z,30.60
2019-06-08T02:03:39.855Z,27.35
2019-06-08T02:06:15.242Z,30.65
2019-06-08T02:08:49.503Z,28.95
2019-06-08T02:11:22.852Z,29.85
2019-06-08T02:13:58.778Z,28.50
2019-06-08T02:16:35.461Z,30.70
2019-06-08T02:19:10.565Z,33.55
2019-06-08T02:21:44.575Z,28.55
2019-06-08T02:24:35.461Z,32.03
2019-06-08T02:27:20.224Z,33.92
2019-06-08T02:31:11.571Z,30.35
2019-06-08T02:33:53.911Z,32.88
2019-06-08T02:36:38.085Z,33.02
2019-06-08T02:39:13.973Z,32.13
2019-06-08T02:41:49.553Z,31.40
2019-06-08T02:44:28.157Z,33.25
2019-06-08T02:47:04.157Z,33.65
2019-06-08T02:49:39.744Z,30.15
2019-06-08T02:52:29.879Z,32.63
2019-06-08T02:55:07.551Z,38.50
2019-06-08T02:57:44.710Z,34.78
2019-06-08T03:00:25.635Z,34.13
2019-06-08T03:03:08.568Z,37.13
2019-06-08T03:05:54.498Z,33.15
2019-06-08T03:08:32.389Z,32.88
2019-06-08T03:11:09.373Z,33.30
2019-06-08T03:13:47.017Z,35.10
2019-06-08T03:16:43.325Z,30.65
2019-06-08T03:19:56.394Z,36.75
2019-06-08T03:22:38.853Z,38.17
2019-06-08T03:25:22.643Z,40.92
2019-06-08T03:28:00.313Z,35.00
2019-06-08T03:30:44.587Z,39.40
2019-06-08T03:33:16.225Z,43.50
2019-06-08T03:35:56.824Z,40.52
2019-06-08T03:38:26.032Z,36.80
2019-06-08T03:41:02.203Z,45.35
2019-06-08T03:43:38.153Z,37.38
2019-06-08T03:46:16.543Z,41.50
2019-06-08T03:49:40.504Z,42.83
2019-06-08T03:52:05.786Z,38.88
2019-06-08T03:55:46.617Z,41.85
2019-06-08T03:58:28.857Z,40.30
2019-06-08T04:01:31.820Z,44.55
2019-06-08T04:04:07.191Z,40.95
2019-06-08T04:06:43.706Z,44.10
2019-06-08T04:09:18.555Z,39.78
2019-06-08T04:11:53.483Z,40.80
2019-06-08T04:14:28.379Z,40.33
2019-06-08T04:17:04.032Z,41.33
2019-06-08T04:20:01.620Z,41.70
2019-06-08T04:22:16.598Z,42.45
2019-06-08T04:24:50.702Z,43.65
2019-06-08T04:27:26.002Z,48.78
2019-06-08T04:30:01.740Z,43.65
2019-06-08T04:32:36.147Z,44.03
2019-06-08T04:35:11.041Z,47.30
2019-06-08T04:37:46.756Z,45.05
2019-06-08T04:40:21.060Z,48.85
2019-06-08T04:42:56.207Z,42.67
2019-06-08T04:45:32.032Z,43.08
2019-06-08T04:48:11.567Z,40.40
2019-06-08T04:50:47.411Z,40.90
2019-06-08T04:53:20.754Z,43.38
2019-06-08T04:55:54.055Z,43.65
2019-06-08T04:58:27.776Z,45.92
2019-06-08T05:01:01.372Z,37.60
2019-06-08T05:03:34.829Z,42.05
2019-06-08T05:06:08.332Z,47.35
2019-06-08T05:08:42.993Z,42.25
2019-06-08T05:11:16.527Z,40.78
2019-06-08T05:13:49.968Z,42.05
2019-06-08T05:16:23.389Z,43.13
2019-06-08T05:18:56.688Z,40.35
2019-06-08T05:21:30.064Z,40.48
2019-06-08T05:24:03.858Z,47.03
2019-06-08T05:26:39.641Z,41.02
2019-06-08T05:29:14.546Z,52.62
2019-06-08T05:31:49.617Z,60.10
2019-06-08T05:34:23.247Z,39.98
2019-06-08T05:36:56.603Z,37.53
2019-06-08T05:39:30.059Z,40.73
2019-06-08T05:42:03.406Z,59.73
2019-06-08T05:44:36.894Z,37.85
2019-06-08T05:47:11.937Z,36.73
2019-06-08T05:49:45.801Z,38.88
2019-06-08T05:52:19.423Z,42.33
2019-06-08T05:54:52.891Z,46.83
2019-06-08T05:57:26.439Z,35.10
2019-06-08T06:00:00.078Z,42.83
2019-06-08T06:02:33.481Z,35.68
2019-06-08T06:05:07.608Z,41.18
2019-06-08T06:07:41.136Z,33.83
2019-06-08T06:10:15.278Z,41.02
2019-06-08T06:12:49.086Z,36.30
2019-06-08T06:15:23.093Z,35.23
2019-06-08T06:17:56.587Z,39.42
2019-06-08T06:20:30.115Z,43.08
2019-06-08T06:23:03.703Z,35.23
2019-06-08T06:25:37.247Z,29.20
2019-06-08T06:28:10.469Z,35.85
2019-06-08T06:30:44.239Z,32.93
2019-06-08T06:33:17.913Z,32.30
2019-06-08T06:35:52.166Z,45.08
2019-06-08T06:38:25.657Z,29.35
2019-06-08T06:40:58.932Z,26.65
2019-06-08T06:43:32.296Z,29.45
2019-06-08T06:46:05.722Z,26.42
2019-06-08T06:48:39.039Z,29.20
2019-06-08T06:51:25.182Z,30.95
2019-06-08T06:53:48.801Z,32.70
2019-06-08T06:56:24.262Z,30.85
2019-06-08T06:58:57.640Z,29.77
2019-06-08T07:01:31.192Z,38.38
2019-06-08T07:04:04.583Z,37.23
2019-06-08T07:06:38.104Z,28.20
2019-06-08T07:09:11.638Z,33.70
2019-06-08T07:11:44.927Z,31.77
2019-06-08T07:14:18.251Z,30.72
2019-06-08T07:16:51.985Z,29.55
2019-06-08T07:19:25.545Z,31.80
2019-06-08T07:21:58.845Z,25.95
2019-06-08T07:24:33.363Z,28.35
2019-06-08T07:27:07.664Z,28.62
2019-06-08T07:29:41.596Z,26.82
2019-06-08T07:32:14.978Z,25.62
2019-06-08T07:34:49.915Z,27.75
2019-06-08T07:37:23.832Z,31.95
2019-06-08T07:39:57.646Z,24.55
2019-06-08T07:42:31.684Z,26.70
2019-06-08T07:45:05.314Z,27.93
2019-06-08T07:47:39.151Z,27.90
2019-06-08T07:50:13.155Z,26.50
2019-06-08T07:52:47.968Z,24.37
2019-06-08T07:55:38.294Z,28.98
2019-06-08T07:58:13.589Z,23.90
2019-06-08T08:00:47.101Z,23.42
2019-06-08T08:03:20.542Z,23.38
2019-06-08T08:05:55.029Z,23.30
2019-06-08T08:08:29.408Z,23.15
2019-06-08T08:11:03.670Z,23.55
2019-06-08T08:13:37.462Z,24.57
2019-06-08T08:16:11.153Z,19.07
2019-06-08T08:18:44.731Z,17.80
2019-06-08T08:21:23.219Z,20.32
2019-06-08T08:23:53.480Z,20.52
2019-06-08T08:26:28.129Z,15.20
2019-06-08T08:29:03.216Z,17.70
2019-06-08T08:31:38.672Z,14.60
2019-06-08T08:34:18.290Z,14.55
2019-06-08T08:36:54.159Z,15.20
2019-06-08T08:39:31.412Z,16.05
2019-06-08T08:42:17.983Z,11.63
2019-06-08T08:44:59.329Z,9.73
2019-06-08T08:47:38.433Z,11.38
2019-06-08T08:50:13.098Z,8.20
2019-06-08T08:52:47.702Z,7.75
2019-06-08T08:56:30.627Z,7.58
2019-06-08T08:59:30.845Z,8.95
2019-06-08T09:02:12.046Z,6.75
2019-06-08T09:04:49.123Z,7.03
2019-06-08T09:07:23.729Z,5.20
2019-06-08T09:10:03.518Z,7.08
2019-06-08T09:12:37.685Z,6.22
2019-06-08T09:15:13.257Z,8.20
2019-06-08T09:18:03.689Z,5.50
2019-06-08T09:20:47.762Z,8.53
2019-06-08T09:23:27.976Z,4.40
2019-06-08T09:27:09.532Z,4.42
2019-06-08T09:29:45.123Z,5.70
2019-06-08T09:32:18.826Z,4.25
2019-06-08T09:35:02.785Z,3.90
2019-06-08T09:37:37.485Z,5.30
2019-06-08T09:40:10.769Z,7.53
2019-06-08T09:42:45.100Z,10.00
2019-06-08T09:48:41.842Z,4.62
2019-06-08T09:51:29.175Z,4.67
2019-06-08T09:54:06.065Z,3.12
2019-06-08T09:56:38.138Z,12.00
2019-06-08T09:59:15.003Z,2.65
2019-06-08T10:01:47.120Z,15.08
2019-06-08T10:04:20.838Z,4.70
2019-06-08T10:06:54.560Z,5.45
2019-06-08T10:09:28.433Z,3.85
2019-06-08T10:12:04.597Z,10.93
2019-06-08T10:36:58.876Z,2.85
2019-06-08T10:39:32.492Z,3.05
2019-06-08T10:42:07.159Z,3.05
2019-06-08T10:44:40.634Z,1.77
2019-06-08T10:47:14.678Z,2.02
2019-06-08T10:49:49.028Z,4.37
2019-06-08T10:52:22.235Z,1.55
2019-06-08T10:54:55.322Z,1.98
2019-06-08T10:57:28.946Z,1.87
2019-06-08T11:00:12.422Z,1.90
2019-06-08T11:02:37.595Z,3.37
2019-06-08T11:05:14.045Z,5.22
2019-06-08T11:07:48.036Z,5.83
2019-06-08T11:10:21.461Z,4.60
2019-06-08T11:12:54.494Z,3.30
2019-06-08T11:15:29.856Z,3.47
2019-06-08T11:18:06.653Z,3.02
2019-06-08T11:20:38.209Z,1.92
2019-06-08T11:23:12.579Z,5.97
2019-06-08T11:25:45.978Z,6.28
2019-06-08T11:28:19.307Z,7.40
2019-06-08T11:30:52.479Z,3.50
2019-06-08T11:33:25.703Z,1.95
2019-06-08T11:36:02.972Z,2.17
2019-06-08T11:38:33.637Z,4.12
2019-06-08T11:41:12.182Z,2.70
2019-06-08T11:43:42.723Z,2.75
2019-06-08T11:46:18.991Z,1.42
2019-06-08T11:48:51.420Z,3.08
2019-06-08T11:51:24.548Z,2.80
2019-06-08T11:53:59.416Z,1.35
2019-06-08T11:56:33.885Z,2.05
2019-06-08T11:59:13.800Z,3.80
2019-06-08T12:01:51.536Z,3.65
2019-06-08T12:04:31.959Z,6.67
2019-06-08T12:07:31.590Z,2.98
2019-06-08T12:19:57.642Z,4.63
2019-06-08T12:22:30.819Z,3.87
2019-06-08T12:25:04.227Z,2.90
2019-06-08T12:27:40.134Z,2.40
2019-06-08T12:30:20.498Z,3.52
2019-06-08T13:01:40.611Z,6.10
2019-06-08T13:04:14.018Z,7.00
2019-06-08T13:06:48.336Z,7.78
2019-06-08T13:09:21.615Z,4.33
2019-06-08T13:11:57.018Z,6.70
2019-06-08T13:14:29.915Z,5.42
2019-06-08T13:17:03.191Z,5.03
2019-06-08T13:19:38.756Z,7.67
2019-06-08T13:22:12.746Z,12.68
2019-06-08T13:24:47.854Z,4.28
2019-06-08T13:27:23.025Z,6.87
2019-06-08T13:29:57.756Z,3.87
2019-06-08T13:32:30.804Z,9.73
2019-06-08T13:35:04.225Z,4.65
2019-06-08T13:37:39.031Z,4.78
2019-06-08T13:40:15.220Z,3.17
2019-06-08T13:42:51.225Z,3.52
2019-06-08T13:45:24.502Z,4.62
2019-06-08T13:47:58.692Z,3.92
2019-06-08T13:50:32.175Z,9.88
2019-06-08T13:53:10.620Z,7.58
2019-06-08T13:55:55.009Z,13.05
2019-06-08T13:58:22.282Z,7.55
2019-06-08T14:00:52.105Z,6.28
2019-06-08T14:03:27.553Z,4.05
2019-06-08T14:06:00.253Z,4.95
2019-06-08T14:08:34.043Z,7.22
2019-06-08T14:11:09.901Z,1.50
2019-06-08T14:13:43.217Z,6.80
2019-06-08T14:16:20.174Z,5.33
2019-06-08T14:18:51.572Z,2.95
2019-06-08T14:21:31.965Z,5.35
2019-06-08T14:24:00.849Z,6.15
2019-06-08T14:26:37.385Z,5.35
2019-06-08T14:29:10.047Z,4.22
2019-06-08T14:31:45.195Z,5.28
2019-06-08T14:34:21.805Z,6.62
2019-06-08T14:36:54.678Z,4.58
2019-06-08T14:39:31.021Z,5.28
2019-06-08T14:42:02.724Z,5.37
2019-06-08T14:44:38.067Z,5.42
2019-06-08T14:47:14.652Z,2.52
2019-06-08T14:49:48.974Z,2.35
2019-06-08T14:52:23.813Z,3.75
2019-06-08T14:54:58.659Z,1.80
2019-06-08T14:57:32.423Z,3.27
2019-06-08T15:00:09.637Z,4.12
2019-06-08T15:02:41.932Z,5.45
2019-06-08T15:05:18.159Z,4.22
2019-06-08T15:07:50.796Z,2.83
2019-06-08T15:10:24.057Z,2.05
2019-06-08T15:12:57.832Z,4.62
2019-06-08T15:15:32.281Z,3.65
2019-06-08T15:18:08.403Z,3.30
2019-06-08T15:20:40.678Z,3.15
2019-06-08T15:23:16.827Z,3.17
2019-06-08T15:25:50.059Z,3.62
2019-06-08T15:28:24.685Z,3.20
2019-06-08T15:31:00.048Z,3.58
2019-06-08T15:33:33.634Z,3.15
2019-06-08T15:36:08.530Z,3.27
2019-06-08T15:38:42.951Z,2.72
2019-06-08T15:41:18.052Z,7.75
2019-06-08T15:43:53.861Z,6.08
2019-06-08T15:46:28.561Z,5.28
2019-06-08T15:49:01.816Z,3.10
2019-06-08T15:51:40.160Z,5.60
2019-06-08T15:54:10.110Z,3.42
2019-06-08T15:56:49.441Z,4.37
2019-06-08T15:59:18.170Z,5.97
2019-06-08T16:01:51.439Z,5.03
2019-06-08T16:04:25.714Z,7.58
2019-06-08T16:06:59.253Z,4.75
2019-06-08T16:09:32.658Z,5.28
2019-06-08T16:12:06.072Z,4.47
2019-06-08T16:14:41.453Z,2.60
2019-06-08T16:17:14.644Z,5.58
2019-06-08T16:19:48.014Z,3.30
2019-06-08T16:22:21.189Z,4.22
2019-06-08T16:24:54.434Z,2.85
2019-06-08T16:27:27.739Z,4.55
2019-06-08T16:30:08.666Z,3.00
2019-06-08T16:32:36.603Z,2.70
2019-06-08T16:35:10.683Z,3.62
2019-06-08T16:37:43.980Z,5.65
2019-06-08T16:40:17.224Z,12.10
2019-06-08T16:42:50.891Z,4.97
2019-06-08T16:45:24.096Z,2.45
2019-06-08T16:47:57.367Z,2.87
2019-06-08T16:50:30.614Z,7.30
2019-06-08T16:53:03.858Z,6.37
2019-06-08T16:55:38.370Z,5.72
2019-06-08T16:58:11.875Z,7.37
2019-06-08T17:00:45.525Z,13.50
2019-06-08T17:03:18.885Z,7.87
2019-06-08T17:05:52.206Z,7.17
2019-06-08T17:08:25.407Z,8.43
2019-06-08T17:10:58.582Z,9.53
2019-06-08T17:13:31.985Z,12.28
2019-06-08T17:16:05.221Z,19.57
2019-06-08T17:18:38.567Z,12.00
2019-06-08T17:21:11.840Z,20.43
2019-06-08T17:23:44.966Z,18.48
2019-06-08T17:26:18.163Z,15.58
2019-06-08T17:28:51.331Z,10.82
2019-06-08T17:31:24.583Z,12.53
2019-06-08T17:33:57.887Z,12.93
2019-06-08T17:36:31.931Z,6.65
2019-06-08T17:39:06.722Z,9.83
2019-06-08T17:41:40.225Z,19.10
2019-06-08T17:44:13.533Z,21.93
2019-06-08T17:46:48.298Z,18.62
2019-06-08T17:49:22.972Z,16.70
2019-06-08T17:51:56.197Z,23.77
2019-06-08T17:54:29.387Z,20.12
2019-06-08T17:57:02.603Z,21.85
2019-06-08T17:59:35.875Z,16.37
2019-06-08T18:02:12.095Z,14.35
2019-06-08T18:04:44.936Z,10.60
2019-06-08T18:07:18.239Z,9.88
2019-06-08T18:09:51.612Z,8.03
2019-06-08T18:12:27.011Z,7.80
2019-06-08T18:14:59.659Z,9.33
2019-06-08T18:17:33.990Z,6.85
2019-06-08T18:20:08.394Z,6.25
2019-06-08T18:22:44.388Z,12.33
2019-06-08T18:25:18.071Z,9.48
2019-06-08T18:28:06.591Z,8.75
2019-06-08T18:30:27.605Z,10.98
2019-06-08T18:33:01.265Z,7.65
2019-06-08T18:35:37.357Z,8.88
2019-06-08T18:38:09.547Z,9.28
2019-06-08T18:40:43.471Z,6.00
2019-06-08T18:43:17.104Z,12.13
2019-06-08T18:45:51.923Z,10.63
2019-06-08T18:48:25.268Z,14.15
2019-06-08T18:50:58.537Z,15.05
2019-06-08T18:53:49.153Z,46.25
2019-06-08T18:56:12.355Z,17.40
2019-06-08T18:58:53.371Z,12.60
2019-06-08T19:01:27.511Z,13.28
2019-06-08T19:04:04.498Z,24.75
2019-06-08T19:06:40.564Z,25.45
2019-06-08T19:09:13.686Z,84.15
2019-06-08T19:11:48.709Z,57.45
2019-06-08T19:14:23.038Z,19.35
2019-06-08T19:16:58.144Z,13.75
2019-06-08T19:19:33.832Z,10.35
2019-06-08T19:22:10.249Z,11.93
2019-06-08T19:24:49.452Z,12.85
2019-06-08T19:27:21.852Z,13.28
2019-06-08T19:29:57.762Z,18.85
2019-06-08T19:32:30.951Z,21.55
2019-06-08T19:35:04.364Z,19.42
2019-06-08T19:37:39.666Z,24.72
2019-06-08T19:40:13.320Z,22.50
2019-06-08T19:42:55.440Z,46.08
2019-06-08T19:45:21.942Z,24.12
2019-06-08T19:47:58.151Z,17.23
2019-06-08T19:50:31.791Z,26.27
2019-06-08T19:53:07.362Z,20.60
2019-06-08T19:55:41.202Z,36.30
2019-06-08T19:58:14.677Z,25.05
2019-06-08T20:00:52.308Z,20.20
2019-06-08T20:03:22.894Z,14.38
2019-06-08T20:05:56.625Z,17.32
2019-06-08T20:08:32.513Z,13.22
2019-06-08T20:11:08.294Z,21.20
2019-06-08T20:13:45.351Z,22.90
2019-06-08T20:16:23.288Z,20.25
2019-06-08T20:18:58.606Z,27.20
2019-06-08T20:21:32.671Z,37.78
2019-06-08T20:24:10.151Z,35.25
2019-06-08T20:26:44.682Z,29.30
2019-06-08T20:29:20.082Z,21.90
2019-06-08T20:31:53.879Z,20.00
2019-06-08T20:34:27.282Z,19.67
2019-06-08T20:37:02.068Z,25.62
2019-06-08T20:39:38.011Z,29.32
2019-06-08T20:42:13.239Z,26.10
2019-06-08T20:44:51.567Z,29.92
2019-06-08T20:47:27.643Z,30.65
2019-06-08T20:50:02.744Z,25.23
2019-06-08T20:52:37.817Z,28.73
2019-06-08T20:55:13.859Z,36.53
2019-06-08T20:57:52.346Z,30.37
2019-06-08T21:00:30.818Z,21.40
2019-06-08T21:03:07.949Z,22.73
2019-06-08T21:11:19.706Z,31.40
2019-06-08T21:19:20.454Z,27.02
2019-06-08T21:21:59.150Z,22.07
2019-06-08T21:24:31.818Z,23.92
2019-06-08T21:27:08.006Z,26.95
2019-06-08T21:29:49.435Z,17.30
2019-06-08T21:32:17.677Z,26.23
2019-06-08T21:34:52.655Z,27.35
2019-06-08T21:37:28.857Z,25.65
2019-06-08T21:40:04.188Z,25.00
2019-06-08T21:42:37.695Z,31.05
2019-06-08T21:45:11.210Z,26.10
2019-06-08T21:47:44.502Z,24.05
2019-06-08T21:50:18.611Z,26.68
2019-06-08T21:52:53.182Z,28.30
2019-06-08T21:55:28.030Z,23.62
2019-06-08T21:58:02.070Z,31.90
2019-06-08T22:00:40.328Z,27.52
2019-06-08T22:03:12.519Z,21.17
2019-06-08T22:05:49.780Z,24.90
2019-06-08T22:08:23.594Z,27.90
2019-06-08T22:10:59.018Z,22.67
2019-06-08T22:13:31.796Z,32.20
2019-06-08T22:16:07.754Z,32.33
2019-06-08T22:18:39.938Z,25.12
2019-06-08T22:21:13.290Z,29.50
2019-06-08T22:23:47.647Z,24.87
2019-06-08T22:26:20.994Z,23.42
2019-06-08T22:28:55.368Z,23.83
2019-06-08T22:31:28.812Z,19.20
2019-06-08T22:34:04.972Z,19.02
2019-06-08T22:36:38.728Z,21.30
2019-06-08T22:39:12.038Z,27.35
2019-06-08T22:41:47.665Z,26.80
2019-06-08T22:44:20.606Z,24.80
2019-06-08T22:46:55.366Z,26.60
2019-06-08T22:49:29.345Z,22.32
2019-06-08T22:52:04.300Z,27.20
2019-06-08T22:54:38.444Z,24.12
2019-06-08T22:57:13.049Z,23.60
2019-06-08T22:59:48.914Z,19.32
2019-06-08T23:02:23.206Z,21.55
2019-06-08T23:04:59.531Z,18.65
2019-06-08T23:07:33.793Z,21.15
2019-06-08T23:10:09.003Z,22.98
2019-06-08T23:12:43.382Z,23.65
2019-06-08T23:15:18.353Z,29.32
2019-06-08T23:17:52.220Z,25.65
2019-06-08T23:20:27.619Z,25.35
2019-06-08T23:23:03.070Z,21.77
2019-06-08T23:25:37.481Z,20.15
2019-06-08T23:28:11.817Z,23.12
2019-06-08T23:31:01.156Z,24.27
2019-06-08T23:33:23.184Z,21.20
2019-06-08T23:36:35.187Z,19.55
2019-06-08T23:38:31.517Z,17.05
2019-06-08T23:41:05.602Z,21.10
2019-06-08T23:43:39.054Z,21.00
2019-06-08T23:46:12.515Z,22.17
2019-06-08T23:48:48.421Z,25.25
2019-06-08T23:51:21.183Z,26.57
2019-06-08T23:53:55.070Z,21.57
2019-06-08T23:56:31.044Z,19.98
2019-06-08T23:59:07.601Z,22.62
